Terminal Aerodrome Forecast
Issued by NWS Corpus Christi, TX

Home | Current Version | Previous Version | Text Only | Print | Product List | Glossary On
Versions: 1 2 3 4 5 6 7 8 9 10 11 12 13 14 15 16 17 18 19 20
000
FTUS44 KCRP 061131
TAFCRP
TAF
KCRP 061131Z 0612/0712 19005KT P6SM SKC
      TEMPO 0612/0614 5SM MIFG
     FM061500 23009KT P6SM SKC
     FM062200 VRB05KT P6SM SKC
     FM070100 02010KT P6SM SKC
     FM070800 02010KT 6SM BR BKN010=

USA.gov is the U.S. government's official web portal to all federal, state and local government web resources and services.